Time;durP1;ratioP1;P1;durP2;ratioP2;P2;SDS_P1;SDS_P2;PMS_P1;PMS_P2;Temp;Humidity;BMP_temperature;BMP_pressure;BME280_temperature;BME280_humidity;BME280_pressure;Samples;Min_cycle;Max_cycle;Signal;HPM_P1;HPM_P2
2023/02/16 00:00:19;;;;;;;6.60;2.70;;;;;;;19.16;21.76;101151.45;108261;1251;60296;-65
2023/02/16 00:02:47;;;;;;;6.30;2.90;;;;;;;19.19;21.70;101151.11;108226;1251;61138;-65
2023/02/16 00:05:24;;;;;;;7.30;2.90;;;;;;;19.06;21.89;101149.33;108288;1251;74339;-66
2023/02/16 00:08:01;;;;;;;7.70;2.60;;;;;;;19.23;21.65;101148.77;108289;1251;71284;-64
2023/02/16 00:10:32;;;;;;;6.70;2.80;;;;;;;19.04;21.77;101151.27;108349;1251;71058;-65
2023/02/16 00:15:47;;;;;;;3.80;2.30;;;;;;;18.87;21.88;101149.89;108364;1251;61237;-67
2023/02/16 00:18:18;;;;;;;7.70;3.40;;;;;;;19.23;21.56;101151.42;108361;1251;74487;-67
2023/02/16 00:20:48;;;;;;;8.50;3.00;;;;;;;19.45;21.41;101150.00;108422;1251;71279;-66
2023/02/16 00:23:17;;;;;;;;;;;;;;;19.39;21.57;101150.14;108452;1252;73683;-65
2023/02/16 00:25:46;;;;;;;6.80;2.50;;;;;;;18.67;22.18;101154.48;108390;1251;62210;-64
2023/02/16 00:28:18;;;;;;;5.00;2.70;;;;;;;18.66;22.32;101154.36;108384;1251;61199;-65
2023/02/16 00:30:46;;;;;;;7.50;2.80;;;;;;;18.67;22.37;101154.87;108369;1251;73874;-65
2023/02/16 00:33:16;;;;;;;5.90;3.10;;;;;;;18.48;22.51;101152.13;108351;1251;71682;-65
2023/02/16 00:35:45;;;;;;;6.50;2.70;;;;;;;18.44;22.64;101150.77;108261;1251;73905;-66
2023/02/16 00:38:15;;;;;;;7.40;3.20;;;;;;;18.56;22.52;101152.42;108332;1251;62186;-66
2023/02/16 00:40:43;;;;;;;8.40;2.90;;;;;;;19.04;22.02;101155.36;108344;1251;61427;-66
2023/02/16 00:43:25;;;;;;;6.90;3.20;;;;;;;19.11;22.04;101154.95;108343;1251;74996;-66
2023/02/16 00:45:53;;;;;;;10.40;3.70;;;;;;;19.16;21.87;101153.07;108207;1251;70988;-66
2023/02/16 00:48:22;;;;;;;7.30;2.90;;;;;;;18.96;21.98;101152.23;108315;1251;73856;-67
2023/02/16 00:50:53;;;;;;;6.50;3.10;;;;;;;18.99;22.12;101149.20;108323;1251;62053;-62
2023/02/16 00:53:23;;;;;;;6.40;3.10;;;;;;;19.04;22.08;101148.60;108258;1251;61561;-63
2023/02/16 00:55:51;;;;;;;9.10;3.00;;;;;;;19.11;22.07;101144.95;108288;1256;75065;-65
2023/02/16 00:58:23;;;;;;;8.10;3.10;;;;;;;19.30;21.90;101140.16;108320;1251;71136;-61
2023/02/16 01:00:53;;;;;;;8.00;2.80;;;;;;;19.19;22.00;101130.08;108303;1251;73848;-65
2023/02/16 01:03:23;;;;;;;6.30;2.80;;;;;;;18.99;22.30;101134.77;108260;1251;61787;-65
2023/02/16 01:11:06;;;;;;;9.80;3.30;;;;;;;19.00;22.43;101127.45;108293;1251;60529;-66
2023/02/16 01:11:28;;;;;;;232.10;56.00;;;;;;;19.10;22.13;101127.77;108331;1251;71013;-65
2023/02/16 01:13:57;;;;;;;100.00;23.70;;;;;;;19.35;21.97;101128.83;108346;1251;73817;-65
2023/02/16 01:16:33;;;;;;;60.20;15.50;;;;;;;19.28;21.78;101128.65;108279;1251;60598;-65
2023/02/16 01:19:02;;;;;;;31.80;8.10;;;;;;;19.08;22.09;101121.46;108266;1251;60981;-66
2023/02/16 01:21:30;;;;;;;15.40;4.60;;;;;;;18.78;22.30;101124.54;108310;1251;73121;-64
2023/02/16 01:24:01;;;;;;;11.00;4.70;;;;;;;18.49;22.71;101121.86;108307;1251;70844;-64
2023/02/16 01:26:30;;;;;;;11.40;4.30;;;;;;;18.58;22.67;101125.81;108355;1255;74353;-66
2023/02/16 01:29:00;;;;;;;14.60;4.60;;;;;;;18.74;22.49;101126.76;108226;1251;60397;-66
2023/02/16 01:31:28;;;;;;;6.90;3.10;;;;;;;18.93;22.53;101125.52;108411;1251;61356;-63
2023/02/16 01:33:57;;;;;;;7.90;3.50;;;;;;;19.05;22.42;101120.41;108433;1256;72899;-65
2023/02/16 01:36:37;;;;;;;9.10;3.10;;;;;;;19.12;22.34;101122.15;108320;1251;71329;-64
2023/02/16 01:39:07;;;;;;;9.40;3.30;;;;;;;18.91;22.54;101120.13;108324;1251;71044;-66
2023/02/16 01:42:13;;;;;;;5.30;2.90;;;;;;;18.57;22.76;101121.08;108280;1251;61359;-65
2023/02/16 01:44:52;;;;;;;23.60;6.60;;;;;;;17.80;23.45;101124.58;108297;1251;61266;-65
2023/02/16 01:47:29;;;;;;;16.40;5.10;;;;;;;17.59;23.65;101123.67;108361;1251;74713;-66
2023/02/16 01:49:57;;;;;;;20.90;5.80;;;;;;;17.44;23.68;101123.52;108345;1251;69277;-65
2023/02/16 01:52:38;;;;;;;17.50;6.10;;;;;;;16.96;24.20;101122.70;108300;1255;73697;-65
2023/02/16 01:55:30;;;;;;;12.60;4.60;;;;;;;16.85;24.40;101123.73;108315;1251;62382;-65
2023/02/16 01:58:06;;;;;;;19.00;6.30;;;;;;;16.85;24.38;101128.02;108328;1251;60504;-65
2023/02/16 02:00:55;;;;;;;15.50;5.80;;;;;;;17.53;23.75;101128.83;108263;1256;75070;-66
2023/02/16 02:06:31;;;;;;;21.30;14.70;;;;;;;17.77;23.69;101127.04;108153;1251;73520;-66
2023/02/16 02:09:18;;;;;;;16.80;5.40;;;;;;;17.14;24.14;101125.04;108375;1251;61540;-66
2023/02/16 02:12:02;;;;;;;13.10;4.80;;;;;;;17.23;24.18;101129.00;108315;1257;61443;-65
2023/02/16 02:14:34;;;;;;;13.30;4.50;;;;;;;17.26;24.18;101124.42;108266;1251;73788;-65
2023/02/16 02:17:08;;;;;;;11.10;3.70;;;;;;;16.93;24.56;101124.46;108268;1251;69930;-65
2023/02/16 02:25:59;;;;;;;10.10;4.50;;;;;;;15.30;26.34;101140.21;107296;1266;62312;-65
2023/02/16 02:28:44;;;;;;;11.90;4.00;;;;;;;15.66;25.97;101142.29;107264;1266;61114;-66
2023/02/16 02:31:52;;;;;;;8.10;3.40;;;;;;;15.87;25.83;101140.36;107409;1263;71062;-64
2023/02/16 02:34:38;;;;;;;7.80;3.00;;;;;;;16.41;25.31;101139.21;107106;1269;69743;-65
2023/02/16 02:37:08;;;;;;;7.40;3.70;;;;;;;17.25;24.45;101133.55;107254;1261;71581;-65
2023/02/16 02:40:06;;;;;;;6.60;3.70;;;;;;;17.31;24.30;101127.61;107525;1260;62514;-66
2023/02/16 02:42:40;;;;;;;8.90;3.60;;;;;;;17.32;24.34;101129.30;107599;1260;60561;-66
2023/02/16 02:45:14;;;;;;;9.60;3.60;;;;;;;17.13;24.60;101131.61;107581;1260;71951;-66
2023/02/16 02:47:43;;;;;;;8.40;3.70;;;;;;;17.22;24.45;101131.72;107568;1260;69660;-65
2023/02/16 02:53:38;;;;;;;10.00;4.40;;;;;;;17.16;24.50;101127.45;107516;1263;60998;-65
2023/02/16 03:01:54;;;;;;;9.70;3.80;;;;;;;17.02;24.76;101128.28;107962;1257;70267;-65
2023/02/16 03:04:22;;;;;;;7.80;3.70;;;;;;;17.54;24.20;101128.38;107858;1257;73937;-65
2023/02/16 03:06:50;;;;;;;7.60;3.40;;;;;;;17.74;24.16;101125.61;107880;1256;62596;-64
2023/02/16 03:09:19;;;;;;;10.00;3.80;;;;;;;17.60;24.22;101123.84;107905;1256;60543;-64
2023/02/16 03:14:42;;;;;;;9.50;4.00;;;;;;;17.30;24.57;101122.98;107888;1257;70719;-65
2023/02/16 03:31:10;;;;;;;7.10;3.50;;;;;;;16.27;25.69;101108.51;107934;1256;72825;-62
2023/02/16 03:33:37;;;;;;;8.20;3.40;;;;;;;16.44;25.39;101108.80;107935;1257;60502;-64
2023/02/16 03:36:04;;;;;;;7.80;3.50;;;;;;;16.57;25.34;101105.70;107787;1256;61211;-64
2023/02/16 03:38:31;;;;;;;5.60;3.10;;;;;;;16.61;25.28;101107.10;107981;1256;74277;-63
2023/02/16 03:40:58;;;;;;;6.00;3.10;;;;;;;16.64;25.20;101101.65;108168;1254;71617;-65
2023/02/16 03:43:25;;;;;;;7.30;3.60;;;;;;;16.53;25.42;101100.58;108218;1254;71764;-67
2023/02/16 03:45:52;;;;;;;9.20;4.30;;;;;;;16.39;25.67;101100.88;108260;1254;60524;-64
2023/02/16 03:48:19;;;;;;;11.30;4.10;;;;;;;16.40;25.60;101104.55;108240;1253;59748;-66
2023/02/16 03:50:46;;;;;;;8.40;3.70;;;;;;;16.56;25.40;101099.38;108232;1253;74078;-66
2023/02/16 03:53:13;;;;;;;11.70;4.90;;;;;;;16.42;25.65;101100.89;108176;1253;70474;-66
2023/02/16 03:55:45;;;;;;;11.80;4.60;;;;;;;16.49;25.54;101102.73;108238;1254;74321;-65
2023/02/16 03:58:14;;;;;;;11.70;4.80;;;;;;;17.04;25.18;101101.39;108214;1253;61468;-64
2023/02/16 04:00:41;;;;;;;15.50;5.20;;;;;;;17.29;24.77;101098.05;108266;1253;60992;-65
2023/02/16 04:03:08;;;;;;;17.20;5.70;;;;;;;17.49;24.64;101093.15;108196;1254;74213;-64
2023/02/16 04:05:35;;;;;;;15.00;6.10;;;;;;;17.70;24.35;101093.48;108148;1254;71206;-65
2023/02/16 04:08:04;;;;;;;10.70;4.60;;;;;;;17.54;24.45;101086.31;108250;1254;72673;-66
2023/02/16 04:10:31;;;;;;;9.70;4.30;;;;;;;17.45;24.57;101080.71;108165;1253;60817;-67
2023/02/16 04:12:58;;;;;;;13.00;5.60;;;;;;;17.62;24.43;101081.46;108184;1253;60820;-66
2023/02/16 04:15:28;;;;;;;12.40;5.10;;;;;;;17.69;24.33;101081.48;108300;1253;74014;-65
2023/02/16 04:17:57;;;;;;;16.10;5.90;;;;;;;17.93;24.12;101085.42;108329;1254;68570;-65
2023/02/16 04:20:29;;;;;;;19.00;6.40;;;;;;;17.66;24.49;101082.69;108181;1254;73818;-67
2023/02/16 04:22:58;;;;;;;16.50;6.80;;;;;;;17.08;24.84;101079.02;108234;1254;60948;-64
2023/02/16 04:25:24;;;;;;;35.90;10.50;;;;;;;16.89;25.22;101081.36;108170;1254;60565;-65
2023/02/16 04:27:54;;;;;;;33.20;10.30;;;;;;;16.90;25.35;101072.61;108136;1253;74117;-66
2023/02/16 04:30:23;;;;;;;45.20;12.90;;;;;;;17.12;25.09;101073.83;108033;1254;69510;-67
2023/02/16 04:32:50;;;;;;;56.40;15.60;;;;;;;16.87;25.33;101067.77;108069;1253;71822;-65
2023/02/16 04:35:17;;;;;;;45.80;12.70;;;;;;;16.40;25.74;101068.94;108133;1253;60475;-66
2023/02/16 04:37:43;;;;;;;70.20;18.40;;;;;;;16.39;25.82;101065.95;108228;1253;61346;-66
2023/02/16 04:40:15;;;;;;;61.30;15.90;;;;;;;16.44;25.90;101060.92;108243;1254;73122;-64
2023/02/16 04:42:42;;;;;;;47.00;14.70;;;;;;;16.53;25.79;101060.19;108198;1253;71104;-65
2023/02/16 04:45:09;;;;;;;68.00;17.10;;;;;;;16.74;25.66;101058.82;108216;1254;72162;-66
2023/02/16 04:47:36;;;;;;;41.00;13.40;;;;;;;16.39;25.96;101059.58;108220;1256;60245;-65
2023/02/16 04:50:03;;;;;;;57.80;17.40;;;;;;;16.05;26.44;101063.25;108168;1254;61243;-66
2023/02/16 04:52:31;;;;;;;52.20;17.00;;;;;;;15.92;26.55;101064.73;108255;1253;73928;-64
2023/02/16 04:54:58;;;;;;;60.60;17.10;;;;;;;15.94;26.66;101059.50;108189;1253;71402;-65
2023/02/16 04:57:25;;;;;;;70.10;18.70;;;;;;;16.04;26.60;101059.05;108235;1253;73201;-66
2023/02/16 04:59:52;;;;;;;46.70;14.00;;;;;;;16.11;26.66;101062.27;108199;1253;62201;-64
2023/02/16 05:02:18;;;;;;;41.20;12.20;;;;;;;16.01;26.74;101057.95;108186;1253;60349;-66
2023/02/16 05:04:47;;;;;;;41.50;15.10;;;;;;;15.98;26.79;101056.98;108222;1253;72178;-68
2023/02/16 05:07:14;;;;;;;29.90;11.60;;;;;;;16.19;26.48;101056.41;108246;1254;71207;-68
2023/02/16 05:09:42;;;;;;;39.60;13.60;;;;;;;16.21;26.51;101055.98;108214;1256;72325;-66
2023/02/16 05:14:54;;;;;;;36.20;12.40;;;;;;;16.37;26.50;101046.73;108307;1253;60675;-67
2023/02/16 05:17:23;;;;;;;52.80;16.00;;;;;;;16.44;26.36;101046.20;108210;1254;72814;-67
2023/02/16 05:19:57;;;;;;;22.90;9.10;;;;;;;16.37;26.43;101048.69;108226;1252;71451;-65
2023/02/16 05:22:24;;;;;;;25.70;10.20;;;;;;;16.33;26.16;101055.62;108264;1254;71691;-66
2023/02/16 05:24:50;;;;;;;23.30;9.70;;;;;;;16.43;25.87;101054.94;108334;1254;62195;-67
2023/02/16 05:27:22;;;;;;;22.10;9.00;;;;;;;16.34;25.82;101056.44;108313;1253;61426;-68
2023/02/16 05:29:49;;;;;;;22.20;8.90;;;;;;;16.32;25.79;101053.91;108222;1253;71847;-67
2023/02/16 05:32:16;;;;;;;18.90;7.00;;;;;;;16.22;25.97;101057.35;108119;1253;71495;-66
2023/02/16 05:34:44;;;;;;;17.90;7.80;;;;;;;16.37;25.57;101052.58;108090;1254;73538;-68
2023/02/16 05:37:12;;;;;;;21.40;8.50;;;;;;;15.81;26.16;101054.56;108114;1253;61437;-67
2023/02/16 05:39:39;;;;;;;17.60;6.90;;;;;;;15.93;26.14;101055.61;108145;1253;61225;-65
2023/02/16 05:42:07;;;;;;;17.60;8.30;;;;;;;15.76;26.28;101054.27;108075;1253;74169;-67
2023/02/16 05:44:35;;;;;;;27.00;8.50;;;;;;;15.78;26.19;101051.18;108062;1253;69339;-66
2023/02/16 05:47:02;;;;;;;19.10;7.40;;;;;;;15.91;26.10;101055.73;108125;1253;73717;-66
2023/02/16 05:49:30;;;;;;;19.10;7.10;;;;;;;15.71;26.32;101057.83;108136;1253;60568;-68
2023/02/16 05:51:57;;;;;;;18.70;8.00;;;;;;;15.72;26.32;101058.12;108067;1253;61320;-66
2023/02/16 05:54:24;;;;;;;21.80;8.70;;;;;;;15.94;26.16;101056.34;108080;1253;73357;-66
2023/02/16 05:56:51;;;;;;;26.30;9.00;;;;;;;15.92;26.16;101053.89;108074;1253;70889;-65
2023/02/16 05:59:19;;;;;;;27.80;9.50;;;;;;;15.73;26.49;101058.63;108101;1253;71938;-66
2023/02/16 06:01:46;;;;;;;24.20;10.30;;;;;;;15.52;26.72;101057.73;108126;1253;62145;-67
2023/02/16 06:04:17;;;;;;;26.10;9.40;;;;;;;15.51;26.95;101056.37;108046;1253;60368;-65
2023/02/16 06:06:44;;;;;;;27.30;10.20;;;;;;;15.46;27.10;101053.05;108128;1253;74631;-66
2023/02/16 06:09:11;;;;;;;27.60;10.80;;;;;;;15.39;27.17;101058.13;108075;1253;71210;-67
2023/02/16 06:11:38;;;;;;;28.60;10.40;;;;;;;15.54;27.17;101056.77;108132;1253;73692;-66
2023/02/16 06:14:13;;;;;;;27.70;12.10;;;;;;;15.60;27.10;101062.17;108096;1253;62393;-64
2023/02/16 06:16:41;;;;;;;33.90;11.90;;;;;;;16.28;26.52;101053.17;108104;1253;61506;-65
2023/02/16 06:19:10;;;;;;;26.60;11.50;;;;;;;16.77;25.92;101048.23;108083;1254;73418;-66
2023/02/16 06:21:38;;;;;;;34.10;13.00;;;;;;;16.85;25.94;101051.58;108085;1253;71086;-65
2023/02/16 06:24:06;;;;;;;26.20;11.00;;;;;;;16.86;25.90;101053.09;108016;1253;73864;-66
2023/02/16 06:26:33;;;;;;;29.40;12.30;;;;;;;17.16;25.81;101055.38;108078;1253;60178;-66
2023/02/16 06:29:00;;;;;;;27.00;11.10;;;;;;;16.84;25.86;101054.80;108194;1253;61380;-67
2023/02/16 06:31:27;;;;;;;25.10;10.50;;;;;;;16.96;25.83;101056.89;108171;1252;73281;-67
2023/02/16 06:33:55;;;;;;;31.70;12.60;;;;;;;17.35;25.39;101054.95;108222;1253;70243;-67
2023/02/16 06:36:23;;;;;;;29.60;11.60;;;;;;;17.53;25.32;101053.88;108186;1252;72776;-66
2023/02/16 06:38:51;;;;;;;29.90;11.30;;;;;;;17.54;25.30;101050.10;108125;1256;61549;-67
2023/02/16 06:41:29;;;;;;;33.40;12.40;;;;;;;17.89;24.93;101046.20;108180;1253;61077;-67
2023/02/16 06:44:00;;;;;;;29.50;11.70;;;;;;;17.68;25.20;101045.66;108174;1253;74639;-66
2023/02/16 06:46:28;;;;;;;32.70;13.60;;;;;;;17.71;25.13;101044.59;108157;1254;70386;-67
2023/02/16 06:48:55;;;;;;;29.70;12.20;;;;;;;17.74;24.99;101040.68;108243;1254;71675;-67
2023/02/16 06:51:22;;;;;;;28.40;12.10;;;;;;;17.87;25.17;101039.35;108052;1252;62190;-66
2023/02/16 06:53:48;;;;;;;25.60;12.20;;;;;;;17.89;25.08;101041.22;108064;1253;61387;-66
2023/02/16 06:56:15;;;;;;;33.60;11.90;;;;;;;17.74;25.33;101043.34;108138;1254;74767;-65
2023/02/16 06:58:43;;;;;;;31.90;12.80;;;;;;;17.97;25.16;101037.38;108141;1254;71422;-66
2023/02/16 07:01:10;;;;;;;24.60;12.20;;;;;;;18.19;24.90;101037.11;108237;1253;73852;-65
2023/02/16 07:03:37;;;;;;;31.40;13.10;;;;;;;18.06;24.98;101034.59;108295;1253;61087;-70
2023/02/16 07:06:05;;;;;;;27.50;12.90;;;;;;;17.82;25.34;101031.96;108191;1253;60576;-67
2023/02/16 07:08:34;;;;;;;25.80;11.80;;;;;;;17.78;25.36;101033.57;108235;1254;73010;-66
2023/02/16 07:11:02;;;;;;;30.90;12.70;;;;;;;17.71;25.51;101033.92;108238;1256;70320;-65
2023/02/16 07:13:29;;;;;;;61.40;13.60;;;;;;;17.74;25.46;101025.98;108177;1253;73826;-66
2023/02/16 07:15:58;;;;;;;26.80;11.90;;;;;;;17.66;25.59;101022.33;108076;1253;61354;-67
2023/02/16 07:18:25;;;;;;;31.60;13.40;;;;;;;17.82;25.53;101021.85;108052;1253;60466;-65
2023/02/16 07:20:56;;;;;;;28.10;12.50;;;;;;;17.95;25.49;101019.77;108331;1254;74024;-66
2023/02/16 07:23:22;;;;;;;33.60;13.60;;;;;;;17.81;25.67;101021.90;108239;1254;71476;-66
2023/02/16 07:25:49;;;;;;;35.40;15.90;;;;;;;17.89;25.50;101018.98;108209;1256;73960;-66
2023/02/16 07:28:17;;;;;;;38.90;14.80;;;;;;;18.03;25.51;101020.22;108185;1253;61970;-67
2023/02/16 07:30:44;;;;;;;32.00;14.40;;;;;;;17.96;25.54;101021.98;108177;1253;60319;-68
2023/02/16 07:33:12;;;;;;;40.90;16.70;;;;;;;18.24;25.23;101017.46;108078;1253;74447;-66
2023/02/16 07:35:39;;;;;;;42.30;14.30;;;;;;;18.35;25.25;101013.64;107991;1253;71074;-67
2023/02/16 07:38:07;;;;;;;35.60;15.00;;;;;;;18.04;25.43;101009.48;108165;1257;73693;-67
2023/02/16 07:40:35;;;;;;;27.10;12.70;;;;;;;18.03;25.59;101006.67;108117;1253;62506;-67
2023/02/16 07:43:06;;;;;;;28.70;12.20;;;;;;;17.71;26.05;101005.38;108159;1253;60984;-67
2023/02/16 07:45:33;;;;;;;31.40;14.60;;;;;;;17.71;25.91;100999.30;108049;1253;74976;-67
2023/02/16 07:48:01;;;;;;;34.50;13.40;;;;;;;17.88;25.94;100996.10;108097;1254;71218;-67
2023/02/16 07:50:28;;;;;;;32.50;13.60;;;;;;;17.82;26.11;100997.65;108019;1253;73677;-67
2023/02/16 07:52:54;;;;;;;32.20;13.60;;;;;;;17.62;26.03;100994.45;108078;1253;60302;-66
2023/02/16 07:55:21;;;;;;;28.00;14.30;;;;;;;17.40;26.58;100995.58;108155;1253;61125;-67
2023/02/16 07:57:53;;;;;;;32.20;14.10;;;;;;;17.65;26.22;100991.98;108098;1253;74999;-66
2023/02/16 08:00:21;;;;;;;30.50;13.40;;;;;;;17.49;26.52;100994.27;108130;1253;69824;-66
2023/02/16 08:02:48;;;;;;;33.60;14.00;;;;;;;17.51;26.63;100992.23;108178;1253;73471;-64
2023/02/16 08:05:15;;;;;;;37.20;14.20;;;;;;;17.81;26.27;100992.94;108205;1254;62325;-65
2023/02/16 08:07:42;;;;;;;25.10;12.30;;;;;;;17.90;26.23;100986.77;108079;1253;61204;-66
2023/02/16 08:10:09;;;;;;;34.50;15.00;;;;;;;17.92;26.13;100987.57;108153;1253;74544;-65
2023/02/16 08:12:36;;;;;;;38.40;14.40;;;;;;;18.04;25.86;100980.89;108139;1253;69874;-66
2023/02/16 08:15:03;;;;;;;32.70;14.40;;;;;;;18.08;26.04;100980.83;108040;1253;74233;-65
2023/02/16 08:17:33;;;;;;;44.00;16.00;;;;;;;18.25;25.78;100979.21;108154;1253;62141;-65
2023/02/16 08:20:00;;;;;;;33.10;13.30;;;;;;;18.45;25.62;100979.51;108147;1253;61401;-67
2023/02/16 08:22:28;;;;;;;33.70;13.20;;;;;;;18.41;25.60;100977.06;107990;1253;75018;-66
2023/02/16 08:24:55;;;;;;;44.00;16.10;;;;;;;18.61;25.39;100978.21;108154;1253;69998;-65
2023/02/16 08:27:23;;;;;;;33.80;13.70;;;;;;;18.72;25.39;100974.59;108078;1253;72886;-65
2023/02/16 08:29:50;;;;;;;35.10;14.70;;;;;;;18.41;25.57;100973.33;108126;1253;62254;-65
2023/02/16 08:32:18;;;;;;;46.40;15.50;;;;;;;18.53;25.58;100971.23;108191;1253;61347;-65
2023/02/16 08:34:46;;;;;;;41.90;15.30;;;;;;;18.16;26.04;100969.73;108131;1253;75045;-63
2023/02/16 08:37:13;;;;;;;33.20;15.90;;;;;;;18.17;25.96;100968.98;108231;1253;70974;-64
2023/02/16 08:39:40;;;;;;;41.20;16.70;;;;;;;17.90;26.50;100968.30;108104;1254;73836;-64
2023/02/16 08:42:10;;;;;;;37.20;17.70;;;;;;;18.06;26.29;100970.83;108033;1253;61978;-65
2023/02/16 08:44:36;;;;;;;37.80;15.90;;;;;;;18.06;26.16;100966.55;108124;1253;60978;-67
2023/02/16 08:47:03;;;;;;;35.60;16.20;;;;;;;18.21;26.20;100968.19;108057;1253;73426;-67
2023/02/16 08:49:32;;;;;;;39.20;17.50;;;;;;;18.23;26.04;100966.33;108084;1257;71158;-66
2023/02/16 08:52:00;;;;;;;40.60;17.90;;;;;;;18.27;26.09;100967.89;108085;1253;73298;-65
2023/02/16 08:54:29;;;;;;;42.60;17.30;;;;;;;18.18;26.25;100971.55;108136;1253;62114;-64
2023/02/16 08:56:57;;;;;;;43.10;18.50;;;;;;;18.02;26.25;100969.23;108127;1254;61858;-65
2023/02/16 08:59:25;;;;;;;38.00;17.10;;;;;;;18.13;26.34;100968.48;108097;1253;72744;-67
2023/02/16 09:01:56;;;;;;;42.40;18.10;;;;;;;18.14;26.32;100969.27;108088;1253;70371;-67
2023/02/16 09:04:24;;;;;;;35.10;16.30;;;;;;;18.12;26.34;100965.14;108135;1254;73512;-67
2023/02/16 09:06:52;;;;;;;36.40;16.40;;;;;;;18.46;26.04;100959.34;108081;1253;60567;-67
2023/02/16 09:09:19;;;;;;;38.20;16.70;;;;;;;18.75;25.78;100956.08;108127;1253;61218;-65
2023/02/16 09:11:46;;;;;;;32.00;15.00;;;;;;;18.79;25.77;100954.94;108160;1253;74838;-67
2023/02/16 09:14:16;;;;;;;66.40;20.40;;;;;;;18.76;25.75;100951.39;108240;1253;69437;-68
2023/02/16 09:16:46;;;;;;;41.60;17.80;;;;;;;18.84;25.64;100949.51;108126;1253;73796;-67
2023/02/16 09:19:18;;;;;;;42.80;19.40;;;;;;;19.01;25.56;100944.23;108106;1253;61161;-66
2023/02/16 09:21:45;;;;;;;42.20;19.90;;;;;;;19.09;25.41;100940.58;108145;1253;61382;-67
2023/02/16 09:24:14;;;;;;;42.00;19.90;;;;;;;19.04;25.47;100944.64;108074;1253;75096;-66
2023/02/16 09:26:41;;;;;;;37.10;17.40;;;;;;;18.84;25.67;100944.37;108100;1253;71259;-65
2023/02/16 09:29:11;;;;;;;45.10;18.20;;;;;;;19.08;25.37;100938.54;108103;1253;71665;-66
2023/02/16 09:31:39;;;;;;;44.30;20.40;;;;;;;18.79;25.71;100934.50;108226;1253;62015;-66
2023/02/16 09:34:07;;;;;;;44.40;21.20;;;;;;;18.78;25.76;100935.13;108236;1253;60185;-66
2023/02/16 09:36:34;;;;;;;35.90;18.70;;;;;;;18.68;25.72;100937.44;108161;1254;74600;-66
2023/02/16 09:39:01;;;;;;;43.80;16.90;;;;;;;18.66;25.81;100934.90;108169;1254;71326;-68
2023/02/16 09:41:31;;;;;;;38.90;17.00;;;;;;;19.11;25.26;100931.20;108203;1254;72179;-67
2023/02/16 09:44:20;;;;;;;39.10;18.60;;;;;;;19.21;25.34;100928.98;108200;1254;61947;-66
2023/02/16 09:46:48;;;;;;;43.00;18.30;;;;;;;18.90;25.52;100922.45;108212;1254;60113;-67
2023/02/16 09:49:25;;;;;;;46.10;19.90;;;;;;;18.98;25.63;100919.84;108216;1253;73833;-66
2023/02/16 09:52:03;;;;;;;42.10;17.60;;;;;;;20.00;24.65;100918.27;108245;1254;71208;-66
2023/02/16 09:54:42;;;;;;;38.40;18.60;;;;;;;19.64;24.81;100913.59;108194;1253;73254;-66
2023/02/16 09:57:40;;;;;;;44.20;20.70;;;;;;;19.60;24.77;100912.73;108168;1254;60714;-66
2023/02/16 10:00:29;;;;;;;39.90;18.30;;;;;;;19.09;25.15;100915.83;108171;1254;60434;-64
2023/02/16 10:02:59;;;;;;;36.60;16.50;;;;;;;19.04;25.17;100918.14;108279;1253;74108;-64
2023/02/16 10:05:44;;;;;;;41.90;17.90;;;;;;;19.66;24.66;100911.65;108256;1254;70422;-64
2023/02/16 10:08:17;;;;;;;34.20;17.30;;;;;;;19.69;24.33;100905.59;108180;1254;72608;-65
2023/02/16 10:14:06;;;;;;;35.80;16.70;;;;;;;19.00;25.19;100902.70;108143;1256;59656;-66
2023/02/16 10:16:40;;;;;;;37.50;16.10;;;;;;;19.69;24.47;100895.47;108124;1252;72109;-66
2023/02/16 10:19:17;;;;;;;38.10;16.60;;;;;;;19.62;24.52;100890.73;108260;1254;70222;-66
2023/02/16 10:21:44;;;;;;;37.60;16.30;;;;;;;19.89;24.27;100892.21;108284;1254;73027;-66
2023/02/16 10:24:10;;;;;;;33.90;14.50;;;;;;;20.28;23.88;100888.08;108132;1253;60327;-66
2023/02/16 10:26:41;;;;;;;37.40;16.70;;;;;;;20.19;24.05;100883.73;108184;1254;60322;-65
2023/02/16 10:29:19;;;;;;;39.00;15.70;;;;;;;20.35;23.75;100880.67;108341;1253;73301;-66
2023/02/16 10:31:58;;;;;;;30.20;14.60;;;;;;;20.26;23.94;100876.29;108370;1254;70255;-65
2023/02/16 10:34:48;;;;;;;36.40;15.90;;;;;;;20.56;23.61;100875.88;108348;1254;74295;-67
2023/02/16 10:37:49;;;;;;;39.50;16.30;;;;;;;19.95;23.85;100875.61;108327;1252;60480;-65
2023/02/16 10:40:26;;;;;;;36.20;15.70;;;;;;;19.31;24.54;100867.13;107945;1253;61362;-65
2023/02/16 10:43:23;;;;;;;38.30;16.30;;;;;;;19.84;24.29;100864.06;108193;1258;74070;-65
2023/02/16 10:45:58;;;;;;;36.20;17.60;;;;;;;19.62;24.43;100856.66;108233;1254;71696;-66
2023/02/16 10:48:25;;;;;;;57.70;18.10;;;;;;;19.56;24.45;100855.48;108199;1254;71618;-66
2023/02/16 10:51:09;;;;;;;36.10;16.60;;;;;;;19.34;25.00;100854.16;108283;1254;60553;-67
2023/02/16 10:53:55;;;;;;;39.30;16.90;;;;;;;19.63;24.48;100851.11;108296;1254;60548;-66
2023/02/16 10:56:51;;;;;;;34.90;15.80;;;;;;;19.62;24.67;100849.36;108326;1254;75042;-65
2023/02/16 10:59:37;;;;;;;27.40;14.70;;;;;;;19.25;25.00;100845.83;108289;1252;70143;-65
2023/02/16 11:02:38;;;;;;;40.70;16.50;;;;;;;19.18;25.00;100842.17;108318;1253;73070;-66
2023/02/16 11:05:28;;;;;;;32.60;14.80;;;;;;;18.96;25.11;100841.68;107997;1254;60690;-66
2023/02/16 11:07:56;;;;;;;34.70;15.30;;;;;;;18.99;25.33;100837.02;108348;1253;60428;-66
2023/02/16 11:10:56;;;;;;;34.20;14.90;;;;;;;20.06;24.32;100834.09;108368;1254;73580;-66
2023/02/16 11:13:30;;;;;;;35.30;14.80;;;;;;;20.25;23.98;100834.09;108366;1254;70582;-67
2023/02/16 11:16:00;;;;;;;39.50;15.40;;;;;;;20.46;23.95;100829.64;108252;1254;72997;-67
2023/02/16 11:18:32;;;;;;;30.20;14.70;;;;;;;20.21;24.07;100827.77;108325;1256;60300;-67
2023/02/16 11:21:00;;;;;;;33.70;14.90;;;;;;;20.48;23.63;100819.55;108317;1253;60559;-66
2023/02/16 11:23:33;;;;;;;30.00;13.70;;;;;;;20.72;23.58;100814.40;108302;1252;74855;-68
2023/02/16 11:26:01;;;;;;;28.40;14.00;;;;;;;20.30;23.73;100813.40;108212;1252;71611;-66
2023/02/16 11:28:36;;;;;;;30.60;13.30;;;;;;;19.50;24.50;100811.65;108321;1256;72819;-66
2023/02/16 11:31:12;;;;;;;32.20;13.50;;;;;;;19.91;24.29;100800.48;108280;1252;60654;-67
2023/02/16 11:33:40;;;;;;;30.50;13.00;;;;;;;20.00;24.14;100802.06;108301;1254;61346;-68
2023/02/16 11:36:19;;;;;;;23.80;12.00;;;;;;;19.86;24.17;100797.81;108154;1254;72983;-67
2023/02/16 11:39:05;;;;;;;32.90;13.70;;;;;;;19.05;25.02;100795.08;108199;1253;70553;-66
2023/02/16 11:41:32;;;;;;;41.80;14.10;;;;;;;19.52;24.72;100789.80;108156;1259;72689;-66
2023/02/16 11:44:00;;;;;;;30.40;12.90;;;;;;;20.01;24.31;100789.34;108236;1252;60421;-68
2023/02/16 11:46:29;;;;;;;27.70;13.00;;;;;;;19.29;24.78;100780.07;108345;1253;60680;-66
2023/02/16 11:48:56;;;;;;;27.00;12.20;;;;;;;19.45;24.43;100775.47;108340;1254;74238;-66
2023/02/16 11:51:31;;;;;;;27.20;11.40;;;;;;;19.51;24.60;100772.45;108291;1256;71386;-67
2023/02/16 11:54:00;;;;;;;34.30;13.20;;;;;;;20.05;23.90;100768.05;108126;1254;72754;-67
2023/02/16 11:56:29;;;;;;;26.00;12.20;;;;;;;19.88;24.05;100762.92;108224;1254;60963;-67
2023/02/16 11:59:17;;;;;;;31.30;13.20;;;;;;;20.19;23.95;100759.63;108191;1253;60526;-66
2023/02/16 12:01:47;;;;;;;25.80;11.90;;;;;;;19.01;24.72;100754.56;108082;1254;74925;-67
2023/02/16 12:04:26;;;;;;;21.40;10.90;;;;;;;19.24;24.67;100746.56;108345;1253;70198;-67
2023/02/16 12:07:07;;;;;;;25.70;12.00;;;;;;;19.57;24.30;100742.27;108326;1254;73584;-67
2023/02/16 12:09:40;;;;;;;26.80;11.50;;;;;;;19.23;24.50;100742.11;108141;1254;61242;-67
2023/02/16 12:12:17;;;;;;;26.80;12.20;;;;;;;19.22;24.55;100735.84;108276;1254;61367;-66